createdAt,value
2022-12-18T00:01:19.752Z,91.10
2022-12-18T00:03:47.157Z,91.97
2022-12-18T00:06:14.708Z,91.43
2022-12-18T00:08:42.548Z,91.15
2022-12-18T00:11:13.291Z,91.93
2022-12-18T00:13:40.567Z,92.56
2022-12-18T00:16:10.363Z,92.86
2022-12-18T00:18:37.346Z,92.49
2022-12-18T00:21:06.831Z,91.74
2022-12-18T00:23:35.719Z,90.64
2022-12-18T00:26:04.289Z,90.84
2022-12-18T00:28:30.735Z,90.51
2022-12-18T00:31:10.649Z,89.26
2022-12-18T00:33:38.120Z,89.76
2022-12-18T00:36:06.848Z,89.94
2022-12-18T00:38:34.406Z,89.86
2022-12-18T00:41:01.077Z,90.07
2022-12-18T00:43:28.445Z,89.42
2022-12-18T00:45:55.568Z,90.73
2022-12-18T00:48:22.605Z,90.20
2022-12-18T00:50:50.267Z,90.58
2022-12-18T00:53:17.379Z,90.92
2022-12-18T00:55:44.280Z,91.28
2022-12-18T00:58:12.195Z,91.00
2022-12-18T01:00:39.283Z,91.40
2022-12-18T01:03:06.742Z,91.08
2022-12-18T01:05:33.792Z,89.74
2022-12-18T01:08:00.779Z,89.54
2022-12-18T01:10:27.752Z,89.01
2022-12-18T01:12:54.228Z,90.08
2022-12-18T01:15:21.296Z,90.04
2022-12-18T01:17:47.800Z,90.33
2022-12-18T01:20:14.881Z,90.45
2022-12-18T01:22:41.269Z,90.05
2022-12-18T01:25:08.085Z,89.37
2022-12-18T01:27:35.008Z,90.40
2022-12-18T01:30:01.564Z,89.30
2022-12-18T01:32:31.423Z,89.63
2022-12-18T01:34:57.853Z,90.49
2022-12-18T01:37:24.345Z,91.58
2022-12-18T01:39:50.965Z,90.09
2022-12-18T01:42:17.639Z,89.10
2022-12-18T01:45:07.723Z,91.18
2022-12-18T01:47:45.573Z,90.20
2022-12-18T01:50:19.056Z,91.46
2022-12-18T01:52:52.550Z,92.77
2022-12-18T01:55:23.258Z,90.54
2022-12-18T01:57:53.322Z,91.87
2022-12-18T02:00:21.685Z,91.58
2022-12-18T02:02:48.899Z,91.63
2022-12-18T02:05:20.071Z,91.31
2022-12-18T02:08:04.653Z,90.73
2022-12-18T02:10:56.137Z,90.11
2022-12-18T02:13:33.193Z,89.55
2022-12-18T02:16:13.249Z,90.22
2022-12-18T02:18:45.361Z,90.54
2022-12-18T02:21:33.898Z,89.36
2022-12-18T02:24:03.039Z,89.19
2022-12-18T02:26:51.654Z,90.29
2022-12-18T02:29:24.524Z,90.35
2022-12-18T02:31:53.912Z,91.45
2022-12-18T02:34:24.928Z,91.79
2022-12-18T02:36:54.471Z,91.68
2022-12-18T02:39:22.912Z,91.03
2022-12-18T02:41:49.812Z,90.69
2022-12-18T02:44:16.381Z,90.47
2022-12-18T02:46:51.364Z,89.66
2022-12-18T02:49:45.657Z,91.23
2022-12-18T02:52:44.253Z,89.51
2022-12-18T02:55:25.910Z,90.46
2022-12-18T02:57:55.408Z,91.14
2022-12-18T03:00:59.423Z,91.05
2022-12-18T03:03:58.494Z,90.46
2022-12-18T03:06:34.337Z,90.08
2022-12-18T03:09:07.120Z,89.77
2022-12-18T03:11:56.167Z,89.74
2022-12-18T03:14:26.896Z,89.19
2022-12-18T03:16:59.744Z,89.36
2022-12-18T03:19:29.268Z,89.94
2022-12-18T03:21:59.607Z,91.00
2022-12-18T03:24:28.960Z,89.22
2022-12-18T03:27:01.241Z,89.37
2022-12-18T03:29:41.849Z,89.40
2022-12-18T03:32:24.918Z,89.60
2022-12-18T03:34:54.640Z,90.00
2022-12-18T03:37:21.041Z,89.78
2022-12-18T03:39:47.541Z,89.04
2022-12-18T03:42:38.319Z,88.70
2022-12-18T03:45:27.389Z,88.86
2022-12-18T03:48:02.472Z,89.31
2022-12-18T03:50:55.352Z,88.18
2022-12-18T03:53:31.047Z,87.53
2022-12-18T03:56:00.291Z,89.20
2022-12-18T03:58:28.694Z,88.80
2022-12-18T04:00:58.558Z,88.67
2022-12-18T04:03:26.650Z,89.66
2022-12-18T04:05:55.089Z,90.04
2022-12-18T04:08:22.862Z,90.74
2022-12-18T04:10:49.291Z,90.09
2022-12-18T04:13:28.450Z,89.69
2022-12-18T04:15:54.952Z,89.88
2022-12-18T04:18:21.383Z,89.15
2022-12-18T04:20:47.803Z,87.49
2022-12-18T04:23:14.273Z,87.81
2022-12-18T04:25:40.814Z,86.57
2022-12-18T04:28:07.247Z,88.91
2022-12-18T04:30:33.828Z,89.40
2022-12-18T04:33:00.258Z,88.41
2022-12-18T04:35:26.663Z,88.32
2022-12-18T04:37:53.221Z,87.66
2022-12-18T04:40:19.651Z,87.73
2022-12-18T04:42:46.158Z,87.52
2022-12-18T04:45:12.660Z,87.30
2022-12-18T04:47:39.098Z,88.00
2022-12-18T04:50:06.047Z,88.04
2022-12-18T04:52:32.432Z,87.33
2022-12-18T04:54:58.817Z,88.95
2022-12-18T04:57:25.209Z,88.27
2022-12-18T04:59:51.610Z,89.15
2022-12-18T05:02:18.165Z,88.93
2022-12-18T05:04:44.650Z,89.27
2022-12-18T05:07:11.085Z,88.81
2022-12-18T05:09:37.474Z,89.24
2022-12-18T05:12:04.002Z,88.98
2022-12-18T05:14:30.554Z,89.37
2022-12-18T05:17:00.884Z,91.22
2022-12-18T05:19:27.711Z,91.13
2022-12-18T05:21:54.298Z,91.59
2022-12-18T05:24:20.670Z,94.40
2022-12-18T05:26:47.096Z,94.39
2022-12-18T05:29:13.539Z,96.24
2022-12-18T05:31:40.619Z,98.29
2022-12-18T05:34:08.626Z,98.37
2022-12-18T05:36:35.224Z,97.58
2022-12-18T05:39:01.637Z,97.78
2022-12-18T05:41:28.294Z,98.95
2022-12-18T05:43:54.703Z,100.00
2022-12-18T05:46:21.723Z,100.00
2022-12-18T05:48:49.162Z,100.00
2022-12-18T05:51:17.762Z,100.00
2022-12-18T05:53:44.723Z,100.00
2022-12-18T05:56:14.577Z,100.00
2022-12-18T05:58:42.008Z,100.00
2022-12-18T06:01:20.417Z,100.00
2022-12-18T06:03:47.441Z,100.00
2022-12-18T06:06:19.636Z,100.00
2022-12-18T06:08:47.054Z,100.00
2022-12-18T06:11:14.411Z,100.00
2022-12-18T06:13:41.307Z,100.00
2022-12-18T06:16:08.076Z,100.00
2022-12-18T06:18:34.842Z,100.00
2022-12-18T06:21:01.299Z,100.00
2022-12-18T06:23:27.872Z,100.00
2022-12-18T06:25:54.716Z,100.00
2022-12-18T06:28:21.141Z,100.00
2022-12-18T06:30:49.203Z,100.00
2022-12-18T06:33:16.668Z,100.00
2022-12-18T06:35:43.373Z,100.00
2022-12-18T06:38:09.858Z,100.00
2022-12-18T06:40:39.126Z,100.00
2022-12-18T06:43:05.949Z,100.00
2022-12-18T06:45:32.391Z,100.00
2022-12-18T06:47:58.827Z,100.00
2022-12-18T06:50:25.586Z,100.00
2022-12-18T06:52:52.204Z,100.00
2022-12-18T06:55:18.827Z,100.00
2022-12-18T06:57:45.212Z,100.00
2022-12-18T07:00:12.091Z,100.00
2022-12-18T07:02:38.610Z,100.00
2022-12-18T07:05:10.474Z,100.00
2022-12-18T07:07:37.594Z,100.00
2022-12-18T07:10:04.522Z,100.00
2022-12-18T07:12:30.929Z,100.00
2022-12-18T07:14:57.325Z,100.00
2022-12-18T07:17:23.796Z,100.00
2022-12-18T07:19:50.168Z,100.00
2022-12-18T07:22:16.578Z,100.00
2022-12-18T07:24:42.958Z,100.00
2022-12-18T07:27:09.801Z,100.00
2022-12-18T07:29:36.885Z,100.00
2022-12-18T07:32:04.577Z,100.00
2022-12-18T07:34:31.117Z,100.00
2022-12-18T07:36:57.554Z,100.00
2022-12-18T07:39:23.992Z,100.00
2022-12-18T07:42:10.364Z,100.00
2022-12-18T07:44:37.352Z,100.00
2022-12-18T07:47:07.757Z,100.00
2022-12-18T07:49:38.087Z,100.00
2022-12-18T07:52:04.668Z,100.00
2022-12-18T07:54:31.061Z,100.00
2022-12-18T07:56:57.500Z,100.00
2022-12-18T07:59:23.889Z,100.00
2022-12-18T08:01:50.403Z,100.00
2022-12-18T08:04:17.265Z,100.00
2022-12-18T08:06:47.599Z,100.00
2022-12-18T08:09:14.684Z,100.00
2022-12-18T08:11:41.296Z,100.00
2022-12-18T08:14:07.817Z,100.00
2022-12-18T08:16:34.389Z,100.00
2022-12-18T08:19:01.127Z,100.00
2022-12-18T08:21:30.113Z,100.00
2022-12-18T08:23:58.815Z,100.00
2022-12-18T08:26:28.046Z,100.00
2022-12-18T08:28:56.688Z,100.00
2022-12-18T08:31:23.899Z,100.00
2022-12-18T08:33:52.496Z,100.00
2022-12-18T08:36:20.455Z,100.00
2022-12-18T08:38:47.642Z,100.00
2022-12-18T08:41:16.655Z,100.00
2022-12-18T08:44:01.711Z,100.00
2022-12-18T08:46:35.078Z,100.00
2022-12-18T08:49:01.742Z,100.00
2022-12-18T08:51:29.253Z,100.00
2022-12-18T08:53:55.695Z,100.00
2022-12-18T08:56:22.103Z,100.00
2022-12-18T08:58:48.628Z,100.00
2022-12-18T09:01:15.190Z,100.00
2022-12-18T09:03:42.761Z,100.00
2022-12-18T09:06:09.517Z,100.00
2022-12-18T09:08:37.508Z,100.00
2022-12-18T09:11:04.517Z,100.00
2022-12-18T09:13:30.934Z,100.00
2022-12-18T09:15:57.492Z,100.00
2022-12-18T09:18:24.645Z,100.00
2022-12-18T09:20:54.071Z,100.00
2022-12-18T09:23:21.734Z,100.00
2022-12-18T09:25:48.657Z,100.00
2022-12-18T09:28:20.098Z,100.00
2022-12-18T09:30:50.229Z,100.00
2022-12-18T09:33:17.973Z,100.00
2022-12-18T09:35:46.140Z,100.00
2022-12-18T09:38:15.160Z,99.75
2022-12-18T09:40:54.547Z,99.94
2022-12-18T09:43:28.097Z,99.64
2022-12-18T09:46:01.193Z,98.87
2022-12-18T09:48:37.515Z,99.16
2022-12-18T09:51:17.767Z,98.39
2022-12-18T09:53:54.282Z,98.58
2022-12-18T09:56:23.890Z,97.67
2022-12-18T09:58:56.250Z,97.56
2022-12-18T10:01:24.196Z,97.73
2022-12-18T10:03:52.621Z,97.95
2022-12-18T10:06:28.178Z,97.70
2022-12-18T10:09:03.827Z,97.73
2022-12-18T10:11:44.530Z,97.50
2022-12-18T10:14:20.316Z,98.00
2022-12-18T10:17:13.337Z,97.45
2022-12-18T10:20:24.658Z,95.11
2022-12-18T10:23:02.124Z,95.48
2022-12-18T10:25:40.425Z,95.00
2022-12-18T10:28:18.787Z,93.89
2022-12-18T10:30:45.477Z,93.08
2022-12-18T10:33:19.970Z,93.01
2022-12-18T10:35:49.222Z,93.37
2022-12-18T10:38:18.789Z,92.55
2022-12-18T10:40:57.411Z,92.82
2022-12-18T10:43:30.075Z,92.05
2022-12-18T10:46:18.467Z,91.75
2022-12-18T10:48:48.023Z,90.51
2022-12-18T10:51:40.825Z,91.75
2022-12-18T10:54:16.827Z,91.59
2022-12-18T10:56:44.313Z,90.79
2022-12-18T10:59:13.508Z,90.90
2022-12-18T11:01:57.885Z,89.99
2022-12-18T11:04:31.851Z,90.52
2022-12-18T11:07:01.127Z,90.55
2022-12-18T11:09:28.658Z,90.70
2022-12-18T11:12:01.369Z,91.43
2022-12-18T11:14:46.715Z,90.80
2022-12-18T11:17:28.646Z,91.14
2022-12-18T11:20:00.068Z,91.01
2022-12-18T11:22:32.408Z,90.73
2022-12-18T11:25:30.688Z,91.10
2022-12-18T11:27:52.500Z,89.73
2022-12-18T11:30:34.362Z,89.94
2022-12-18T11:33:21.831Z,89.87
2022-12-18T11:35:59.110Z,90.31
2022-12-18T11:38:35.555Z,88.75
2022-12-18T11:41:23.860Z,89.28
2022-12-18T11:43:59.071Z,88.90
2022-12-18T11:46:37.631Z,89.61
2022-12-18T11:49:36.035Z,88.96
2022-12-18T11:52:17.557Z,89.57
2022-12-18T11:54:57.188Z,89.61
2022-12-18T11:58:04.975Z,88.76
2022-12-18T12:00:31.979Z,89.57
2022-12-18T12:03:24.973Z,88.69
2022-12-18T12:06:19.236Z,87.70
2022-12-18T12:09:01.140Z,88.91
2022-12-18T12:11:45.665Z,87.99
2022-12-18T12:14:25.593Z,88.40
2022-12-18T12:16:59.154Z,88.85
2022-12-18T12:20:10.238Z,88.78
2022-12-18T12:22:57.422Z,88.26
2022-12-18T12:25:31.274Z,88.38
2022-12-18T12:28:19.150Z,88.86
2022-12-18T12:30:57.733Z,87.75
2022-12-18T12:33:51.754Z,87.37
2022-12-18T12:36:27.274Z,87.39
2022-12-18T12:38:58.521Z,87.53
2022-12-18T12:41:47.373Z,86.97
2022-12-18T12:44:24.726Z,86.82
2022-12-18T12:46:53.584Z,87.03
2022-12-18T12:49:23.661Z,87.40
2022-12-18T12:52:05.977Z,86.55
2022-12-18T12:54:34.787Z,86.86
2022-12-18T12:57:18.492Z,86.61
2022-12-18T13:00:04.069Z,87.35
2022-12-18T13:02:59.831Z,85.40
2022-12-18T13:05:47.060Z,86.12
2022-12-18T13:12:35.977Z,84.82
2022-12-18T13:15:24.123Z,85.87
2022-12-18T13:18:23.963Z,85.89
2022-12-18T13:21:02.948Z,86.04
2022-12-18T13:23:40.981Z,85.37
2022-12-18T13:26:08.408Z,85.20
2022-12-18T13:28:34.854Z,85.89
2022-12-18T13:31:05.629Z,86.18
2022-12-18T13:33:56.359Z,85.64
2022-12-18T13:36:34.008Z,85.44
2022-12-18T13:39:26.712Z,85.90
2022-12-18T13:42:05.706Z,86.00
2022-12-18T13:44:41.643Z,86.53
2022-12-18T13:47:44.265Z,86.24
2022-12-18T13:50:23.910Z,87.13
2022-12-18T13:52:51.856Z,86.55
2022-12-18T13:55:23.106Z,86.46
2022-12-18T13:57:49.574Z,86.51
2022-12-18T14:00:29.362Z,86.84
2022-12-18T14:02:57.431Z,86.92
2022-12-18T14:05:24.057Z,87.37
2022-12-18T14:07:53.325Z,87.19
2022-12-18T14:10:42.264Z,87.24
2022-12-18T14:13:09.326Z,86.89
2022-12-18T14:15:48.819Z,87.25
2022-12-18T14:18:20.472Z,87.10
2022-12-18T14:20:52.548Z,87.33
2022-12-18T14:23:37.611Z,87.60
2022-12-18T14:26:21.943Z,88.44
2022-12-18T14:28:48.987Z,88.82
2022-12-18T14:31:24.346Z,89.03
2022-12-18T14:33:52.859Z,89.13
2022-12-18T14:36:22.240Z,88.69
2022-12-18T14:38:56.302Z,89.28
2022-12-18T14:41:23.568Z,88.96
2022-12-18T14:43:55.187Z,89.50
2022-12-18T14:46:33.895Z,89.63
2022-12-18T14:49:04.950Z,88.86
2022-12-18T14:51:34.139Z,89.03
2022-12-18T14:54:04.346Z,88.57
2022-12-18T14:56:33.381Z,88.95
2022-12-18T14:59:01.269Z,88.30
2022-12-18T15:01:31.235Z,88.82
2022-12-18T15:03:59.714Z,88.98
2022-12-18T15:06:35.819Z,89.09
2022-12-18T15:09:06.675Z,88.99
2022-12-18T15:11:35.619Z,88.85
2022-12-18T15:14:30.843Z,89.01
2022-12-18T15:16:58.454Z,88.99
2022-12-18T15:19:35.278Z,88.86
2022-12-18T15:22:06.285Z,89.19
2022-12-18T15:24:33.834Z,89.59
2022-12-18T15:27:01.443Z,89.15
2022-12-18T15:29:28.402Z,89.64
2022-12-18T15:32:06.220Z,89.74
2022-12-18T15:34:34.980Z,89.97
2022-12-18T15:37:01.535Z,89.67
2022-12-18T15:39:28.009Z,89.59
2022-12-18T15:42:13.141Z,89.39
2022-12-18T15:44:41.146Z,89.65
2022-12-18T15:47:13.624Z,89.38
2022-12-18T15:49:40.458Z,90.00
2022-12-18T15:52:07.396Z,89.94
2022-12-18T15:54:52.402Z,90.03
2022-12-18T15:57:24.923Z,90.25
2022-12-18T15:59:53.933Z,90.61
2022-12-18T16:02:23.727Z,90.66
2022-12-18T16:04:52.953Z,90.95
2022-12-18T16:07:22.822Z,91.18
2022-12-18T16:09:51.614Z,91.51
2022-12-18T16:12:21.754Z,91.48
2022-12-18T16:14:48.579Z,90.97
2022-12-18T16:17:15.705Z,91.34
2022-12-18T16:19:42.199Z,90.67
2022-12-18T16:22:28.842Z,91.52
2022-12-18T16:24:56.599Z,91.45
2022-12-18T16:27:23.894Z,91.13
2022-12-18T16:29:50.570Z,91.63
2022-12-18T16:32:20.055Z,91.96
2022-12-18T16:34:47.327Z,91.86
2022-12-18T16:37:15.408Z,92.31
2022-12-18T16:39:42.279Z,92.19
2022-12-18T16:42:19.870Z,91.99
2022-12-18T16:44:48.088Z,92.50
2022-12-18T16:47:15.145Z,92.36
2022-12-18T16:49:42.090Z,92.45
2022-12-18T16:52:08.627Z,93.23
2022-12-18T16:54:36.581Z,92.95
2022-12-18T16:57:05.285Z,92.75
2022-12-18T16:59:32.240Z,91.93
2022-12-18T17:01:58.736Z,92.41
2022-12-18T17:04:25.326Z,91.94
2022-12-18T17:06:53.469Z,91.65
2022-12-18T17:09:25.244Z,91.96
2022-12-18T17:11:53.132Z,92.36
2022-12-18T17:14:23.024Z,92.82
2022-12-18T17:17:07.455Z,94.57
2022-12-18T17:19:36.304Z,94.03
2022-12-18T17:22:02.818Z,93.24
2022-12-18T17:24:34.539Z,94.14
2022-12-18T17:27:02.211Z,93.79
2022-12-18T17:29:28.709Z,92.89
2022-12-18T17:31:55.117Z,92.61
2022-12-18T17:34:23.331Z,92.60
2022-12-18T17:36:49.933Z,92.84
2022-12-18T17:39:19.456Z,92.62
2022-12-18T17:41:46.574Z,92.58
2022-12-18T17:44:13.383Z,92.83
2022-12-18T17:46:40.047Z,92.39
2022-12-18T17:49:06.602Z,92.54
2022-12-18T17:51:33.057Z,92.85
2022-12-18T17:53:59.886Z,92.25
2022-12-18T17:56:26.451Z,93.08
2022-12-18T17:58:53.658Z,93.69
2022-12-18T18:01:23.696Z,93.45
2022-12-18T18:03:53.844Z,93.65
2022-12-18T18:06:21.262Z,92.97
2022-12-18T18:08:48.195Z,92.70
2022-12-18T18:11:35.631Z,93.11
2022-12-18T18:14:05.129Z,92.76
2022-12-18T18:16:33.358Z,91.81
2022-12-18T18:19:02.120Z,92.13
2022-12-18T18:21:29.287Z,93.17
2022-12-18T18:23:59.449Z,93.51
2022-12-18T18:26:29.131Z,92.70
2022-12-18T18:28:57.224Z,93.03
2022-12-18T18:31:23.776Z,92.77
2022-12-18T18:33:50.258Z,91.67
2022-12-18T18:36:16.758Z,91.55
2022-12-18T18:38:48.277Z,92.13
2022-12-18T18:41:15.626Z,91.48
2022-12-18T18:43:42.329Z,92.41
2022-12-18T18:46:12.512Z,92.26
2022-12-18T18:48:40.150Z,92.32
2022-12-18T18:51:12.092Z,91.56
2022-12-18T18:53:43.389Z,92.35
2022-12-18T18:58:59.194Z,92.28
2022-12-18T19:01:26.619Z,91.86
2022-12-18T19:03:54.021Z,91.38
2022-12-18T19:06:24.181Z,92.67
2022-12-18T19:08:52.013Z,92.04
2022-12-18T19:11:38.206Z,91.71
2022-12-18T19:14:07.145Z,91.88
2022-12-18T19:16:35.121Z,91.75
2022-12-18T19:19:02.682Z,92.30
2022-12-18T19:21:31.144Z,92.07
2022-12-18T19:24:00.715Z,91.35
2022-12-18T19:26:28.441Z,92.15
2022-12-18T19:29:01.037Z,91.84
2022-12-18T19:31:33.423Z,91.90
2022-12-18T19:34:01.937Z,91.54
2022-12-18T19:36:30.467Z,91.72
2022-12-18T19:39:00.138Z,91.48
2022-12-18T19:41:31.310Z,91.24
2022-12-18T19:43:59.221Z,91.60
2022-12-18T19:46:25.699Z,91.28
2022-12-18T19:48:52.722Z,92.31
2022-12-18T19:51:25.993Z,91.63
2022-12-18T19:53:58.556Z,92.02
2022-12-18T19:56:27.861Z,91.26
2022-12-18T19:58:55.101Z,91.35
2022-12-18T20:01:23.902Z,91.11
2022-12-18T20:03:53.635Z,91.25
2022-12-18T20:06:32.672Z,90.88
2022-12-18T20:09:02.286Z,91.39
2022-12-18T20:11:32.515Z,90.98
2022-12-18T20:13:59.022Z,90.97
2022-12-18T20:16:25.505Z,90.62
2022-12-18T20:18:55.090Z,90.88
2022-12-18T20:21:22.870Z,91.07
2022-12-18T20:23:49.388Z,90.31
2022-12-18T20:26:16.034Z,90.58
2022-12-18T20:28:42.535Z,90.75
2022-12-18T20:31:13.553Z,90.60
2022-12-18T20:33:41.508Z,90.75
2022-12-18T20:36:13.586Z,90.92
2022-12-18T20:38:43.795Z,91.30
2022-12-18T20:41:16.310Z,91.37
2022-12-18T20:43:43.316Z,91.70
2022-12-18T20:46:12.074Z,91.24
2022-12-18T20:48:38.553Z,90.98
2022-12-18T20:51:08.189Z,90.64
2022-12-18T20:53:35.610Z,91.05
2022-12-18T20:56:06.647Z,90.46
2022-12-18T20:58:36.343Z,90.52
2022-12-18T21:04:01.184Z,91.37
2022-12-18T21:06:27.882Z,91.12
2022-12-18T21:08:54.276Z,90.54
2022-12-18T21:11:39.308Z,90.22
2022-12-18T21:14:12.007Z,91.45
2022-12-18T21:16:39.898Z,91.21
2022-12-18T21:19:06.418Z,90.69
2022-12-18T21:21:38.572Z,91.00
2022-12-18T21:24:06.215Z,91.06
2022-12-18T21:26:32.754Z,91.32
2022-12-18T21:29:01.988Z,90.76
2022-12-18T21:31:35.231Z,91.76
2022-12-18T21:34:02.645Z,91.57
2022-12-18T21:36:29.813Z,90.67
2022-12-18T21:38:57.505Z,90.06
2022-12-18T21:41:44.161Z,89.96
2022-12-18T21:44:14.790Z,90.02
2022-12-18T21:46:44.030Z,90.80
2022-12-18T21:49:14.304Z,90.92
2022-12-18T21:51:41.126Z,91.62
2022-12-18T21:54:07.524Z,90.83
2022-12-18T21:56:47.492Z,90.78
2022-12-18T21:59:19.148Z,89.95
2022-12-18T22:01:46.326Z,89.77
2022-12-18T22:04:13.494Z,89.70
2022-12-18T22:06:40.987Z,89.98
2022-12-18T22:09:07.424Z,90.47
2022-12-18T22:11:33.867Z,90.51
2022-12-18T22:14:00.329Z,90.29
2022-12-18T22:16:27.389Z,91.16
2022-12-18T22:18:54.496Z,90.69
2022-12-18T22:21:41.918Z,90.82
2022-12-18T22:24:21.356Z,90.68
2022-12-18T22:26:49.438Z,90.62
2022-12-18T22:29:39.501Z,90.36
2022-12-18T22:32:07.753Z,90.50
2022-12-18T22:34:36.921Z,91.10
2022-12-18T22:37:03.561Z,90.65
2022-12-18T22:39:30.425Z,91.74
2022-12-18T22:41:57.811Z,92.11
2022-12-18T22:44:24.435Z,91.92
2022-12-18T22:47:06.510Z,89.70
2022-12-18T22:49:34.842Z,90.41
2022-12-18T22:52:02.231Z,89.96
2022-12-18T22:54:28.665Z,91.32
2022-12-18T22:56:55.567Z,90.91
2022-12-18T22:59:23.220Z,90.44
2022-12-18T23:01:51.424Z,90.97
2022-12-18T23:04:28.493Z,90.56
2022-12-18T23:07:02.601Z,89.91
2022-12-18T23:09:29.066Z,90.98
2022-12-18T23:11:55.433Z,91.14
2022-12-18T23:14:21.895Z,90.81
2022-12-18T23:16:48.294Z,90.43
2022-12-18T23:19:16.853Z,90.89
2022-12-18T23:21:43.302Z,89.78
2022-12-18T23:24:10.251Z,90.23
2022-12-18T23:26:37.220Z,90.64
2022-12-18T23:29:04.462Z,91.30
2022-12-18T23:31:34.042Z,90.96
2022-12-18T23:34:02.563Z,91.11
2022-12-18T23:36:29.589Z,91.76
2022-12-18T23:39:00.541Z,91.47
2022-12-18T23:41:30.326Z,91.27
2022-12-18T23:43:57.631Z,90.60
2022-12-18T23:46:32.644Z,91.26
2022-12-18T23:49:00.876Z,90.68
2022-12-18T23:51:28.360Z,90.09
2022-12-18T23:53:57.957Z,91.20
2022-12-18T23:56:25.611Z,90.24
2022-12-18T23:58:52.888Z,90.00
